메인 페이지
METAR-TAF:

METAR-TAF

공항 :

John Wayne-Orange County Airport

샌타애나, 캘리포니아, 미국

위도: 33-40-48N, 경도: 117-51-59W, 고도: 16m

현재 날씨관측

예보는 46분 전, 15:53시(UTC)에 발표되었습니다.
무풍
온도 19°C
습도 73%
기압 1010 hPa
시정: 16.1km
고도 1600ft 상공 흐림

METAR: KSNA 201553Z 00000KT 10SM OVC016 19/14 A2983 RMK AO2 SLP100 T01940139

시각: 09:39 (16:39 UTC)

예보

예보는 5 시간 19분 전, 11:20시(UTC)에 발표되었습니다.
예보 대상 시간: 20일 12시부터 21일 12시까지 (UTC)
여러 방향의 바람 4kt
시정: 10km
고도 1200ft 상공 흐림
20일 1700시부터 (UTC)
여러 방향의 바람 4kt
시정: 10km
고도 1500ft 상공 구름 보통
20일 1900시부터 (UTC)
남서10kt
시정: 10km
맑음
21일 0300시부터 (UTC)
여러 방향의 바람 4kt
시정: 10km
맑음
21일 0900시부터 (UTC)
여러 방향의 바람 3kt
시정: 10km
고도 1000ft 상공 구름 많음

TAF: KSNA 201120Z 2012/2112 VRB04KT P6SM OVC012 FM201700 VRB04KT P6SM SCT015 FM201900 22010KT P6SM SKC FM210300 VRB04KT P6SM SKC FM210900 VRB03KT P6SM BKN010

4,000개 이상의 공항 관측 자료 및 예보 (METAR 및 TAF 보고).

지도상에서 검색 가능한 기상관측소가 노란 점과 빨간 점으로 표시되어 있습니다.

기상관측소 명을 보려면 표시 위로 마우스를 이동하세요.

날씨 관측과 예보를 보려면 클릭하세요.

지도 변경 : 확대하려면 엑스 표시가 있는 녹색 버튼, 축소하려면 빼기 표시가 있는 녹색 버튼, 다음 페이지의 지도를 보려면 녹색 화살표를 클릭하세요.


METAR-TAF: